Time;durP1;ratioP1;P1;durP2;ratioP2;P2;SDS_P1;SDS_P2;PMS_P1;PMS_P2;Temp;Humidity;BMP_temperature;BMP_pressure;BME280_temperature;BME280_humidity;BME280_pressure;Samples;Min_cycle;Max_cycle;Signal;HPM_P1;HPM_P2
2021/12/27 00:02:29;;;;;;;48.28;25.52;;;0.20;2201.60;;;;;;4896674;29;20048;-86
2021/12/27 00:04:58;;;;;;;40.83;24.60;;;0.60;2201.60;;;;;;4860821;29;20106;-84
2021/12/27 00:07:34;;;;;;;41.67;23.55;;;0.30;2201.60;;;;;;4853768;29;20083;-82
2021/12/27 00:10:25;;;;;;;38.50;22.95;;;0.30;2201.60;;;;;;4856960;29;20066;-81
2021/12/27 00:12:57;;;;;;;39.38;24.17;;;0.20;2201.60;;;;;;4855857;29;20117;-83
2021/12/27 00:15:26;;;;;;;32.10;19.92;;;0.00;2201.60;;;;;;4844602;29;20049;-90
2021/12/27 00:17:58;;;;;;;41.17;24.42;;;0.00;2201.60;;;;;;4850486;29;20543;-92
2021/12/27 00:20:32;;;;;;;38.38;25.05;;;0.10;2201.60;;;;;;4834437;29;20034;-84
2021/12/27 00:23:28;;;;;;;42.42;24.20;;;0.20;2201.60;;;;;;4855766;29;20037;-83
2021/12/27 00:26:34;;;;;;;41.90;25.13;;;0.20;2201.60;;;;;;4809647;29;20079;-81
2021/12/27 00:29:32;;;;;;;40.97;23.60;;;0.40;2201.60;;;;;;4814413;29;20031;-80
2021/12/27 00:32:43;;;;;;;41.10;24.67;;;51.90;2227.20;;;;;;4810980;29;20180;-83
2021/12/27 00:35:32;;;;;;;39.15;24.40;;;0.30;2201.60;;;;;;4752702;30;20029;-80
2021/12/27 00:38:24;;;;;;;38.78;25.27;;;0.40;2201.60;;;;;;4762348;29;20032;-79
2021/12/27 00:41:28;;;;;;;36.65;24.52;;;0.60;2201.60;;;;;;4742853;30;20053;-79
2021/12/27 00:44:42;;;;;;;42.28;26.05;;;0.80;2201.60;;;;;;4776152;29;20037;-79
2021/12/27 00:47:54;;;;;;;37.00;23.23;;;0.80;2201.60;;;;;;4739378;30;20061;-79
2021/12/27 00:51:15;;;;;;;32.25;21.80;;;0.70;2201.60;;;;;;4715495;30;20098;-79
2021/12/27 00:54:01;;;;;;;38.78;22.10;;;0.80;2201.60;;;;;;4706044;30;20034;-79
2021/12/27 00:56:32;;;;;;;35.63;22.77;;;0.50;2201.60;;;;;;4711666;30;20041;-79
2021/12/27 00:59:05;;;;;;;32.15;20.65;;;0.70;2201.60;;;;;;4693704;30;20515;-78
2021/12/27 01:01:56;;;;;;;31.90;20.52;;;0.70;2201.60;;;;;;4725281;30;20081;-78
2021/12/27 01:04:46;;;;;;;30.83;21.13;;;0.80;2201.60;;;;;;4706354;30;20042;-77
2021/12/27 01:07:41;;;;;;;31.50;21.08;;;0.80;2201.60;;;;;;4705732;30;20145;-79
2021/12/27 01:11:11;;;;;;;32.97;20.58;;;25.60;2201.60;;;;;;4702036;30;20030;-79
2021/12/27 01:13:46;;;;;;;34.05;22.42;;;0.90;2201.60;;;;;;4774293;30;20047;-80
2021/12/27 01:16:30;;;;;;;33.10;20.67;;;0.90;2201.60;;;;;;4778705;30;20059;-78
2021/12/27 01:18:58;;;;;;;32.45;21.15;;;0.80;2201.60;;;;;;4768467;30;20039;-79
2021/12/27 01:21:42;;;;;;;38.00;22.88;;;0.70;2201.60;;;;;;4774717;29;20080;-78
2021/12/27 01:24:12;;;;;;;38.85;22.55;;;0.70;2201.60;;;;;;4736351;30;20033;-78
2021/12/27 01:27:02;;;;;;;33.67;22.00;;;0.70;2201.60;;;;;;4734520;30;20045;-79
2021/12/27 01:29:34;;;;;;;35.35;20.70;;;0.80;2201.60;;;;;;4730540;30;20042;-78
2021/12/27 01:32:02;;;;;;;34.35;22.95;;;0.70;2201.60;;;;;;4736582;30;20082;-78
2021/12/27 01:34:33;;;;;;;45.05;25.95;;;0.50;2201.60;;;;;;4736176;30;20050;-78
2021/12/27 01:37:12;;;;;;;36.78;23.85;;;0.60;2201.60;;;;;;4741467;30;20076;-79
2021/12/27 01:39:39;;;;;;;35.22;22.00;;;0.80;2201.60;;;;;;4727214;30;20532;-78
2021/12/27 01:42:16;;;;;;;33.45;22.05;;;0.40;2201.60;;;;;;4731075;30;20050;-79
2021/12/27 01:45:04;;;;;;;32.30;22.15;;;25.60;2201.60;;;;;;4772019;30;20082;-78
2021/12/27 01:47:38;;;;;;;34.40;22.80;;;25.60;2201.60;;;;;;4756443;30;20100;-78
2021/12/27 01:51:01;;;;;;;33.40;21.92;;;25.70;2201.60;;;;;;4838181;29;20067;-78
2021/12/27 01:53:41;;;;;;;38.75;23.02;;;25.70;2201.60;;;;;;4785956;29;20043;-79
2021/12/27 01:56:15;;;;;;;31.92;21.50;;;25.60;2201.60;;;;;;4776284;30;20019;-79
2021/12/27 01:59:19;;;;;;;31.60;20.77;;;25.70;2201.60;;;;;;4749008;30;20091;-79
2021/12/27 02:01:44;;;;;;;30.10;19.38;;;0.30;2201.60;;;;;;4782137;30;20055;-79
2021/12/27 02:04:32;;;;;;;30.95;19.88;;;0.50;2201.60;;;;;;4779551;30;20070;-81
2021/12/27 02:07:08;;;;;;;37.47;21.83;;;0.30;2201.60;;;;;;4778437;30;20043;-79
2021/12/27 02:09:48;;;;;;;35.25;22.05;;;0.50;2201.60;;;;;;4781470;30;20036;-76
2021/12/27 02:12:16;;;;;;;34.85;20.75;;;0.50;2201.60;;;;;;4779122;30;20035;-79
2021/12/27 02:14:41;;;;;;;38.13;23.05;;;0.40;2201.60;;;;;;4776859;29;20036;-79
2021/12/27 02:17:08;;;;;;;33.38;20.70;;;0.50;2201.60;;;;;;4775952;30;20054;-79
2021/12/27 02:19:38;;;;;;;37.33;22.00;;;0.60;2201.60;;;;;;4784564;30;20099;-77
2021/12/27 02:22:21;;;;;;;35.00;21.65;;;0.60;2201.60;;;;;;4777884;30;20036;-78
2021/12/27 02:25:36;;;;;;;31.52;19.40;;;0.70;2201.60;;;;;;4779451;29;20040;-79
2021/12/27 02:28:33;;;;;;;27.73;17.27;;;0.60;2201.60;;;;;;4768625;30;20043;-79
2021/12/27 02:31:07;;;;;;;28.02;18.20;;;0.50;2201.60;;;;;;4861947;29;20038;-79
2021/12/27 02:33:42;;;;;;;30.48;19.80;;;0.40;2201.60;;;;;;4861126;29;20034;-85
2021/12/27 02:36:12;;;;;;;33.60;22.10;;;0.50;2201.60;;;;;;4856159;29;20065;-78
2021/12/27 02:38:48;;;;;;;33.83;21.30;;;0.70;2201.60;;;;;;4881038;29;20028;-79
2021/12/27 02:41:28;;;;;;;33.00;21.00;;;0.80;2201.60;;;;;;4870438;29;20072;-79
2021/12/27 02:43:57;;;;;;;34.85;22.77;;;0.80;2201.60;;;;;;4882271;29;20054;-79
2021/12/27 02:46:28;;;;;;;28.42;19.35;;;0.90;2201.60;;;;;;4876591;29;20102;-78
2021/12/27 02:48:54;;;;;;;27.88;18.92;;;0.90;2201.60;;;;;;4861611;29;20033;-79
2021/12/27 02:51:20;;;;;;;29.23;20.88;;;0.90;2201.60;;;;;;4867129;29;20034;-78
2021/12/27 02:53:48;;;;;;;29.73;19.38;;;25.60;2201.60;;;;;;4869538;29;20033;-78
2021/12/27 02:56:14;;;;;;;34.92;22.95;;;25.70;2201.60;;;;;;4866340;29;20113;-77
2021/12/27 02:58:40;;;;;;;31.20;20.38;;;25.60;2201.60;;;;;;4865117;29;20064;-78
2021/12/27 03:01:12;;;;;;;37.58;22.90;;;0.80;2201.60;;;;;;4873269;29;20021;-77
2021/12/27 03:03:53;;;;;;;29.75;19.77;;;0.90;2201.60;;;;;;4875068;29;20051;-79
2021/12/27 03:06:22;;;;;;;28.55;19.13;;;25.60;2201.60;;;;;;4873747;29;20484;-76
2021/12/27 03:08:49;;;;;;;29.70;19.38;;;25.70;2201.60;;;;;;4871735;29;20034;-77
2021/12/27 03:11:16;;;;;;;28.60;19.23;;;25.80;2201.60;;;;;;4874980;29;20034;-76
2021/12/27 03:14:01;;;;;;;28.45;19.30;;;25.70;2201.60;;;;;;4870663;29;20088;-79
2021/12/27 03:16:26;;;;;;;28.40;19.45;;;25.80;2201.60;;;;;;4874803;29;20067;-78
2021/12/27 03:18:54;;;;;;;23.90;15.85;;;25.80;2201.60;;;;;;4867708;29;20034;-79
2021/12/27 03:21:20;;;;;;;25.35;16.20;;;25.70;2201.60;;;;;;4868240;29;20095;-79
2021/12/27 03:23:48;;;;;;;25.38;17.75;;;25.70;2201.60;;;;;;4859883;29;20502;-79
2021/12/27 03:26:14;;;;;;;33.72;20.42;;;25.70;2201.60;;;;;;4842509;29;20029;-78
2021/12/27 03:28:40;;;;;;;28.30;18.02;;;25.60;2201.60;;;;;;4867522;29;20038;-78
2021/12/27 03:31:07;;;;;;;30.13;19.67;;;0.80;2201.60;;;;;;4859005;29;20044;-78
2021/12/27 03:33:33;;;;;;;28.75;19.98;;;0.90;2201.60;;;;;;4851100;29;20030;-78
2021/12/27 03:36:04;;;;;;;33.60;20.80;;;0.90;2201.60;;;;;;4866010;29;20104;-78
2021/12/27 03:38:33;;;;;;;26.10;17.92;;;0.90;2201.60;;;;;;4850430;29;20054;-78
2021/12/27 03:41:00;;;;;;;30.63;19.17;;;25.60;2201.60;;;;;;4849744;29;20124;-78
2021/12/27 03:43:26;;;;;;;27.95;19.13;;;25.70;2201.60;;;;;;4858553;29;20049;-78
2021/12/27 03:45:53;;;;;;;26.05;17.13;;;25.80;2201.60;;;;;;4849689;29;20086;-78
2021/12/27 03:48:18;;;;;;;26.08;17.50;;;25.80;2201.60;;;;;;4862234;29;20033;-78
2021/12/27 03:50:44;;;;;;;31.77;20.23;;;25.80;2201.60;;;;;;4872433;29;20089;-77
2021/12/27 03:53:10;;;;;;;32.38;20.00;;;25.70;2201.60;;;;;;4874731;29;20030;-79
2021/12/27 03:55:37;;;;;;;30.75;19.85;;;25.60;2201.60;;;;;;4865624;29;20093;-78
2021/12/27 03:58:22;;;;;;;28.77;18.77;;;25.70;2201.60;;;;;;4865966;29;20025;-78
2021/12/27 04:01:01;;;;;;;25.90;17.58;;;25.60;2201.60;;;;;;4867962;29;20042;-78
2021/12/27 04:03:29;;;;;;;27.00;17.80;;;25.60;2201.60;;;;;;4867833;29;20049;-78
2021/12/27 04:05:57;;;;;;;28.77;18.38;;;0.90;2201.60;;;;;;4870778;29;20395;-79
2021/12/27 04:08:27;;;;;;;27.25;17.33;;;0.90;2201.60;;;;;;4859222;29;20037;-79
2021/12/27 04:10:55;;;;;;;29.90;19.45;;;25.60;2201.60;;;;;;4873707;29;20037;-79
2021/12/27 04:13:24;;;;;;;28.75;17.60;;;25.60;2201.60;;;;;;4866536;29;20041;-79
2021/12/27 04:15:55;;;;;;;21.02;14.73;;;0.90;2201.60;;;;;;4869612;29;20040;-78
2021/12/27 04:18:22;;;;;;;22.88;15.27;;;0.90;2201.60;;;;;;4870856;29;20030;-78
2021/12/27 04:20:49;;;;;;;21.35;15.40;;;0.90;2201.60;;;;;;4877371;29;20032;-78
2021/12/27 04:23:16;;;;;;;22.00;15.35;;;25.60;2201.60;;;;;;4873871;29;20056;-79
2021/12/27 04:25:43;;;;;;;23.10;14.80;;;25.60;2201.60;;;;;;4881324;29;20034;-79
2021/12/27 04:28:10;;;;;;;23.15;15.32;;;0.90;2201.60;;;;;;4876866;29;20120;-78
2021/12/27 04:30:36;;;;;;;22.10;15.27;;;0.90;2201.60;;;;;;4871715;29;20030;-78
2021/12/27 04:33:03;;;;;;;25.70;16.33;;;0.80;2201.60;;;;;;4876426;29;20030;-77
2021/12/27 04:35:30;;;;;;;24.80;16.52;;;0.80;2201.60;;;;;;4879656;29;20036;-78
2021/12/27 04:37:58;;;;;;;18.48;13.75;;;25.90;2201.60;;;;;;4883077;29;20136;-79
2021/12/27 04:40:27;;;;;;;24.77;16.00;;;0.80;2201.60;;;;;;4873733;29;20029;-78
2021/12/27 04:43:01;;;;;;;23.33;15.70;;;0.80;2201.60;;;;;;4881960;29;20041;-78
2021/12/27 04:45:27;;;;;;;26.58;17.35;;;0.80;2201.60;;;;;;4890828;29;20032;-78
2021/12/27 04:47:55;;;;;;;25.52;17.42;;;0.70;2201.60;;;;;;4891682;29;20475;-78
2021/12/27 04:50:23;;;;;;;25.42;16.27;;;0.80;2201.60;;;;;;4892024;29;20033;-78
2021/12/27 04:52:55;;;;;;;23.08;15.82;;;0.80;2201.60;;;;;;4875905;29;20032;-78
2021/12/27 04:55:38;;;;;;;20.15;14.63;;;0.80;2201.60;;;;;;4870126;29;20037;-77
2021/12/27 04:58:07;;;;;;;19.50;13.95;;;0.80;2201.60;;;;;;4885310;29;20029;-79
2021/12/27 05:00:56;;;;;;;18.52;12.85;;;0.80;2201.60;;;;;;4885570;29;20080;-79
2021/12/27 05:03:22;;;;;;;16.92;12.95;;;0.80;2201.60;;;;;;4889746;29;20040;-79
2021/12/27 05:05:48;;;;;;;21.10;13.98;;;0.70;2201.60;;;;;;4892638;29;20029;-78
2021/12/27 05:08:14;;;;;;;20.02;14.23;;;0.70;2201.60;;;;;;4892309;29;20044;-78
2021/12/27 05:10:44;;;;;;;21.40;13.32;;;0.80;2201.60;;;;;;4890342;29;20029;-79
2021/12/27 05:13:09;;;;;;;19.30;14.55;;;0.80;2201.60;;;;;;4890905;29;20039;-78
2021/12/27 05:15:35;;;;;;;22.95;14.88;;;0.90;2201.60;;;;;;4891256;29;20085;-78
2021/12/27 05:18:01;;;;;;;22.48;14.52;;;0.80;2201.60;;;;;;4882881;29;20395;-78
2021/12/27 05:20:27;;;;;;;19.77;13.90;;;0.80;2201.60;;;;;;4868815;29;20037;-78
2021/12/27 05:22:53;;;;;;;22.55;14.75;;;0.80;2201.60;;;;;;4887649;29;20120;-78
2021/12/27 05:25:20;;;;;;;23.58;15.27;;;0.70;2201.60;;;;;;4869707;29;20045;-78
2021/12/27 05:27:48;;;;;;;20.75;14.32;;;0.80;2201.60;;;;;;4888053;29;20032;-78
2021/12/27 05:30:14;;;;;;;26.48;18.05;;;0.80;2201.60;;;;;;4880528;29;20025;-78
2021/12/27 05:32:41;;;;;;;27.70;18.88;;;0.80;2201.60;;;;;;4887933;29;20025;-77
2021/12/27 05:35:11;;;;;;;24.60;15.50;;;0.90;2201.60;;;;;;4888227;29;20033;-79
2021/12/27 05:37:38;;;;;;;24.33;17.08;;;0.90;2201.60;;;;;;4886970;29;20487;-77
2021/12/27 05:40:07;;;;;;;25.42;15.98;;;0.80;2201.60;;;;;;4859959;29;20041;-78
2021/12/27 05:42:36;;;;;;;31.52;19.30;;;0.80;2201.60;;;;;;4898344;29;20063;-79
2021/12/27 05:45:04;;;;;;;21.80;15.38;;;0.90;2201.60;;;;;;4888948;29;20041;-78
2021/12/27 05:47:30;;;;;;;24.23;17.10;;;0.90;2201.60;;;;;;4874737;29;20030;-79
2021/12/27 05:49:56;;;;;;;23.98;17.17;;;0.90;2201.60;;;;;;4895020;29;20391;-78
2021/12/27 05:52:22;;;;;;;23.10;15.63;;;0.90;2201.60;;;;;;4888087;29;20041;-79
2021/12/27 05:54:47;;;;;;;25.52;17.30;;;25.60;2201.60;;;;;;4898352;29;20032;-78
2021/12/27 05:57:13;;;;;;;26.48;17.88;;;25.60;2201.60;;;;;;4897777;29;20013;-79
2021/12/27 05:59:44;;;;;;;20.98;16.02;;;0.90;2201.60;;;;;;4898284;29;20037;-79
2021/12/27 06:02:11;;;;;;;22.90;16.33;;;25.60;2201.60;;;;;;4899557;29;20103;-78
2021/12/27 06:04:36;;;;;;;22.90;16.30;;;25.70;2201.60;;;;;;4899454;29;20013;-79
2021/12/27 06:07:04;;;;;;;27.40;18.60;;;25.80;2201.60;;;;;;4902436;29;20050;-77
2021/12/27 06:09:29;;;;;;;24.30;16.95;;;25.70;2201.60;;;;;;4900422;29;20017;-78
2021/12/27 06:11:55;;;;;;;21.08;15.25;;;25.80;2201.60;;;;;;4888008;29;20044;-77
2021/12/27 06:14:21;;;;;;;21.42;15.13;;;25.80;2201.60;;;;;;4893861;29;20638;-78
2021/12/27 06:16:52;;;;;;;25.92;16.30;;;25.80;2201.60;;;;;;4896330;29;20069;-79
2021/12/27 06:19:38;;;;;;;21.20;15.45;;;25.80;2201.60;;;;;;4861083;29;20049;-79
2021/12/27 06:22:29;;;;;;;22.35;16.23;;;25.70;2201.60;;;;;;4820698;29;20043;-79
2021/12/27 06:25:03;;;;;;;22.33;16.90;;;25.80;2201.60;;;;;;4818376;29;20041;-78
2021/12/27 06:27:44;;;;;;;24.13;17.70;;;25.80;2201.60;;;;;;4821827;29;20078;-79
2021/12/27 06:30:30;;;;;;;25.75;17.75;;;25.90;2201.60;;;;;;4818501;29;20454;-79
2021/12/27 06:32:56;;;;;;;25.25;18.42;;;26.00;2201.60;;;;;;4815393;29;20047;-78
2021/12/27 06:35:22;;;;;;;32.17;22.55;;;26.00;2201.60;;;;;;4815932;29;20042;-78
2021/12/27 06:50:41;;;;;;;29.45;21.67;;;26.10;2201.60;;;;;;5003979;23;20041;-78
2021/12/27 06:54:12;;;;;;;35.58;23.30;;;26.20;2201.60;;;;;;4852928;29;20034;-78
2021/12/27 07:02:28;;;;;;;31.48;21.50;;;25.90;2201.60;;;;;;5140727;23;20064;-78
2021/12/27 07:04:53;;;;;;;58.75;36.90;;;26.00;2201.60;;;;;;4924306;29;20025;-78
2021/12/27 07:07:34;;;;;;;33.00;23.70;;;26.10;2201.60;;;;;;4905534;29;20137;-79
2021/12/27 07:10:09;;;;;;;32.55;23.70;;;26.10;2201.60;;;;;;4898736;29;20037;-78
2021/12/27 07:12:51;;;;;;;31.88;22.92;;;26.20;2201.60;;;;;;4893532;29;20078;-79
2021/12/27 07:15:28;;;;;;;25.85;18.92;;;26.20;2201.60;;;;;;4894424;29;20029;-79
2021/12/27 07:17:58;;;;;;;;;;;26.20;2201.60;;;;;;4893856;29;20045;-76
2021/12/27 07:20:29;;;;;;;26.48;19.75;;;25.90;2201.60;;;;;;4905169;29;19920;-76
2021/12/27 07:23:38;;;;;;;28.63;19.50;;;26.00;2201.60;;;;;;4908507;29;20033;-79
2021/12/27 07:26:05;;;;;;;32.30;22.55;;;26.10;2201.60;;;;;;4872142;29;20021;-76
2021/12/27 07:31:15;;;;;;;29.30;21.27;;;26.20;2201.60;;;;;;5128110;23;20072;-78
2021/12/27 07:34:25;;;;;;;33.45;22.40;;;26.30;2201.60;;;;;;5038091;23;20096;-78
2021/12/27 07:37:03;;;;;;;41.70;27.23;;;26.30;2201.60;;;;;;4847161;29;20053;-78
2021/12/27 07:39:29;;;;;;;41.00;25.90;;;26.30;2201.60;;;;;;5189512;23;21099;-77
2021/12/27 07:44:33;;;;;;;37.55;25.25;;;26.30;2201.60;;;;;;5703537;23;20076;-78
2021/12/27 07:50:25;;;;;;;36.47;25.27;;;26.30;2201.60;;;;;;5023702;23;19949;-79
2021/12/27 07:52:55;;;;;;;42.22;27.83;;;26.30;2201.60;;;;;;4920064;29;20032;-78
2021/12/27 08:11:16;;;;;;;37.17;25.70;;;26.40;2201.60;;;;;;5742036;23;20056;-77
2021/12/27 08:13:56;;;;;;;45.00;30.05;;;26.30;2201.60;;;;;;4868164;29;20532;-79
2021/12/27 08:24:33;;;;;;;37.08;26.58;;;26.50;2201.60;;;;;;4924854;29;20044;-78
2021/12/27 08:27:02;;;;;;;37.72;26.98;;;51.20;2227.20;;;;;;4910846;29;20052;-74
2021/12/27 08:29:29;;;;;;;35.45;26.15;;;51.30;2227.20;;;;;;4919339;29;20113;-76
2021/12/27 08:31:57;;;;;;;38.65;28.77;;;51.30;2227.20;;;;;;4905641;23;20052;-75
2021/12/27 08:35:01;;;;;;;47.60;32.40;;;51.20;2227.20;;;;;;4903319;29;20065;-75
2021/12/27 08:37:31;;;;;;;36.63;27.15;;;51.20;2227.20;;;;;;4898082;29;20044;-74
2021/12/27 08:40:41;;;;;;;36.40;25.95;;;26.50;2201.60;;;;;;4915537;29;20116;-78
2021/12/27 08:43:33;;;;;;;46.88;28.23;;;51.20;2227.20;;;;;;4880801;29;20045;-77
2021/12/27 08:46:21;;;;;;;45.20;27.55;;;26.50;2201.60;;;;;;4862226;29;20037;-79
2021/12/27 08:48:47;;;;;;;72.53;35.53;;;26.50;2201.60;;;;;;4879023;29;20045;-76
2021/12/27 08:51:35;;;;;;;37.78;25.23;;;26.50;2201.60;;;;;;4872646;29;20495;-78
2021/12/27 09:53:10;;;;;;;27.92;20.42;;;51.20;2227.20;;;;;;4841430;29;20043;-76
2021/12/27 09:56:06;;;;;;;23.95;16.55;;;52.00;2227.20;;;;;;4847507;29;20094;-79
2021/12/27 09:58:40;;;;;;;22.70;17.23;;;51.40;2227.20;;;;;;4872125;24;20042;-76
2021/12/27 10:01:07;;;;;;;30.35;20.55;;;51.30;2227.20;;;;;;4864342;29;20030;-80
2021/12/27 10:07:02;;;;;;;23.88;17.63;;;51.50;2227.20;;;;;;5728459;24;20355;-77
2021/12/27 10:57:33;;;;;;;33.63;20.77;;;51.40;2227.20;;;;;;5050139;23;20058;-79
2021/12/27 11:03:43;;;;;;;43.08;25.08;;;51.40;2227.20;;;;;;4764254;30;20082;-79
2021/12/27 11:06:25;;;;;;;61.50;29.33;;;51.30;2227.20;;;;;;4775741;30;20048;-78
2021/12/27 11:12:10;;;;;;;33.83;21.55;;;51.40;2227.20;;;;;;5108972;24;20073;-78
2021/12/27 11:14:52;;;;;;;48.10;26.65;;;51.30;2227.20;;;;;;4849097;29;20029;-79
2021/12/27 11:17:23;;;;;;;49.78;30.05;;;51.20;2227.20;;;;;;4868258;29;20010;-80
2021/12/27 11:20:17;;;;;;;54.58;28.77;;;51.30;2227.20;;;;;;4866269;29;20034;-77
2021/12/27 11:22:45;;;;;;;94.20;43.10;;;51.30;2227.20;;;;;;4831199;29;20449;-77
2021/12/27 11:25:42;;;;;;;34.55;23.15;;;51.20;2227.20;;;;;;4837437;29;20058;-75
2021/12/27 11:28:35;;;;;;;66.22;31.27;;;51.20;2227.20;;;;;;4836921;29;20027;-76
2021/12/27 11:31:28;;;;;;;50.28;25.08;;;51.20;2227.20;;;;;;4829405;29;20030;-78
2021/12/27 11:34:08;;;;;;;45.10;25.67;;;51.30;2227.20;;;;;;4819710;29;20042;-75
2021/12/27 11:36:57;;;;;;;55.53;25.75;;;51.30;2227.20;;;;;;4817197;29;20043;-76
2021/12/27 11:39:32;;;;;;;38.95;21.73;;;51.30;2227.20;;;;;;4819850;29;20043;-77
2021/12/27 11:42:04;;;;;;;41.88;26.30;;;51.30;2227.20;;;;;;4804134;29;20023;-77
2021/12/27 11:44:59;;;;;;;35.97;20.92;;;51.30;2227.20;;;;;;4812493;29;20045;-77
2021/12/27 11:47:32;;;;;;;29.60;17.88;;;51.30;2227.20;;;;;;4817818;29;20023;-77
2021/12/27 11:50:05;;;;;;;27.73;18.17;;;51.30;2227.20;;;;;;4818521;29;20027;-76
2021/12/27 11:52:47;;;;;;;32.17;18.10;;;51.30;2227.20;;;;;;4820945;29;20057;-78
2021/12/27 11:55:25;;;;;;;36.80;20.55;;;51.30;2227.20;;;;;;4799419;29;20035;-74
2021/12/27 11:58:01;;;;;;;43.88;25.20;;;51.40;2227.20;;;;;;4817357;29;20175;-75
2021/12/27 12:12:04;;;;;;;40.80;22.02;;;51.50;2227.20;;;;;;4861074;24;20062;-77
2021/12/27 12:17:37;;;;;;;40.15;23.48;;;51.40;2227.20;;;;;;4977347;23;20058;-75
2021/12/27 12:20:04;;;;;;;41.80;25.58;;;51.40;2227.20;;;;;;4846569;29;20078;-75
2021/12/27 12:22:35;;;;;;;42.50;25.25;;;51.30;2227.20;;;;;;4828288;29;20074;-76
2021/12/27 12:25:30;;;;;;;38.33;24.33;;;51.30;2227.20;;;;;;4822001;29;20109;-77
2021/12/27 12:28:00;;;;;;;42.00;26.92;;;51.30;2227.20;;;;;;4837450;29;20034;-74
2021/12/27 12:30:32;;;;;;;46.03;28.63;;;51.30;2227.20;;;;;;4823402;29;20041;-76
2021/12/27 12:33:41;;;;;;;44.05;29.60;;;51.20;2227.20;;;;;;4827160;29;20035;-76
2021/12/27 12:36:16;;;;;;;54.35;33.08;;;51.20;2227.20;;;;;;4841243;29;20030;-77
2021/12/27 12:49:32;;;;;;;46.00;30.52;;;26.50;2201.60;;;;;;5476635;23;20080;-79
2021/12/27 12:52:57;;;;;;;53.90;36.35;;;51.20;2227.20;;;;;;4834869;29;20034;-79
2021/12/27 12:57:59;;;;;;;47.45;31.77;;;26.50;2201.60;;;;;;1230243;27;20472;-76
2021/12/27 13:00:37;;;;;;;41.97;28.58;;;26.50;2201.60;;;;;;4809797;29;20069;-77
2021/12/27 13:03:33;;;;;;;39.75;28.70;;;26.40;2201.60;;;;;;4815847;29;20066;-75
2021/12/27 13:06:03;;;;;;;43.85;30.77;;;26.40;2201.60;;;;;;4833106;29;20566;-77
2021/12/27 13:08:29;;;;;;;41.45;28.85;;;26.40;2201.60;;;;;;4817260;29;20034;-75
2021/12/27 13:11:16;;;;;;;41.70;28.63;;;26.30;2201.60;;;;;;4835382;29;20015;-78
2021/12/27 13:13:43;;;;;;;49.45;35.10;;;26.40;2201.60;;;;;;4836142;29;20045;-77
2021/12/27 13:16:26;;;;;;;69.07;45.38;;;26.30;2201.60;;;;;;4829951;29;20018;-78
2021/12/27 13:19:21;;;;;;;43.65;29.33;;;26.30;2201.60;;;;;;4831097;29;20061;-76
2021/12/27 13:24:25;;;;;;;51.05;32.42;;;26.40;2201.60;;;;;;1239874;27;20054;-77
2021/12/27 13:26:51;;;;;;;69.13;43.22;;;26.30;2201.60;;;;;;4844588;29;20034;-75
2021/12/27 13:29:18;;;;;;;64.45;42.85;;;26.30;2201.60;;;;;;4832883;29;20050;-76
2021/12/27 13:31:44;;;;;;;71.10;45.83;;;26.40;2201.60;;;;;;4845301;29;20030;-73
2021/12/27 13:34:10;;;;;;;79.30;51.78;;;26.40;2201.60;;;;;;4845286;29;20029;-73
2021/12/27 13:36:42;;;;;;;56.13;35.85;;;26.30;2201.60;;;;;;4854806;29;20042;-75
2021/12/27 13:39:20;;;;;;;76.05;48.00;;;26.30;2201.60;;;;;;4845532;29;20022;-72
2021/12/27 13:41:52;;;;;;;62.72;38.10;;;26.30;2201.60;;;;;;4842430;29;20139;-74
2021/12/27 13:44:29;;;;;;;64.88;41.25;;;26.30;2201.60;;;;;;4842410;29;20049;-76
2021/12/27 13:46:57;;;;;;;61.45;39.40;;;26.30;2201.60;;;;;;4842590;29;20117;-74
2021/12/27 13:49:23;;;;;;;65.80;38.70;;;26.20;2201.60;;;;;;4842051;29;20416;-72
2021/12/27 13:52:17;;;;;;;62.60;38.80;;;26.20;2201.60;;;;;;4840321;29;20038;-73
2021/12/27 13:54:47;;;;;;;64.25;39.50;;;26.20;2201.60;;;;;;4840913;29;20026;-72
2021/12/27 13:57:13;;;;;;;80.75;48.35;;;26.10;2201.60;;;;;;4840848;29;20503;-75
2021/12/27 13:59:41;;;;;;;64.78;40.63;;;26.10;2201.60;;;;;;4842801;29;20082;-75
2021/12/27 14:02:09;;;;;;;64.13;39.15;;;26.20;2201.60;;;;;;4847061;29;20097;-75
2021/12/27 14:04:35;;;;;;;62.92;38.20;;;26.20;2201.60;;;;;;4839086;29;20040;-75
2021/12/27 14:07:08;;;;;;;68.43;42.45;;;26.10;2201.60;;;;;;4841242;29;20086;-73
2021/12/27 14:09:37;;;;;;;65.50;41.33;;;26.10;2201.60;;;;;;4839100;29;20030;-73
2021/12/27 14:12:05;;;;;;;76.15;44.55;;;26.10;2201.60;;;;;;4839962;29;20541;-72
2021/12/27 14:15:02;;;;;;;72.00;44.13;;;26.10;2201.60;;;;;;4851720;29;20017;-77
2021/12/27 14:18:11;;;;;;;61.28;38.30;;;26.20;2201.60;;;;;;4859935;29;20028;-79
2021/12/27 14:26:20;;;;;;;79.47;40.45;;;26.20;2201.60;;;;;;5099741;23;20057;-76
2021/12/27 14:29:39;;;;;;;71.90;43.88;;;26.10;2201.60;;;;;;4853043;29;20053;-78
2021/12/27 14:32:26;;;;;;;77.63;45.03;;;26.00;2201.60;;;;;;4836738;29;20029;-79
2021/12/27 14:35:11;;;;;;;73.10;43.45;;;26.10;2201.60;;;;;;4856802;29;20037;-79
2021/12/27 14:37:37;;;;;;;73.50;43.88;;;26.10;2201.60;;;;;;4834739;29;20047;-77
2021/12/27 14:42:38;;;;;;;70.82;44.72;;;26.00;2201.60;;;;;;5752035;23;20046;-75
2021/12/27 14:45:06;;;;;;;79.07;48.55;;;26.00;2201.60;;;;;;4848214;29;20042;-74
2021/12/27 14:47:32;;;;;;;80.00;47.65;;;26.10;2201.60;;;;;;4833119;29;20071;-76
2021/12/27 14:50:58;;;;;;;72.78;45.00;;;26.10;2201.60;;;;;;4838162;29;20026;-79
2021/12/27 14:53:24;;;;;;;81.88;49.00;;;26.10;2201.60;;;;;;4785222;30;20047;-79
2021/12/27 14:55:54;;;;;;;92.20;54.80;;;26.00;2201.60;;;;;;4768927;30;20067;-77
2021/12/27 14:58:24;;;;;;;95.90;56.47;;;26.00;2201.60;;;;;;4779556;29;20129;-78
2021/12/27 15:03:51;;;;;;;77.60;47.50;;;26.10;2201.60;;;;;;4837278;27;20063;-79
2021/12/27 15:06:29;;;;;;;84.70;49.05;;;26.10;2201.60;;;;;;4790948;29;20038;-78
2021/12/27 15:09:04;;;;;;;;;;;26.10;2201.60;;;;;;4832549;29;20035;-79
2021/12/27 15:15:22;;;;;;;70.72;43.00;;;26.00;2201.60;;;;;;4846018;29;20097;-80
2021/12/27 15:20:43;;;;;;;65.07;41.03;;;26.00;2201.60;;;;;;5023024;24;20273;-75
2021/12/27 15:23:09;;;;;;;61.17;39.30;;;26.00;2201.60;;;;;;4852025;29;20049;-74
2021/12/27 15:25:34;;;;;;;62.90;38.97;;;26.00;2201.60;;;;;;4831489;29;20046;-74
2021/12/27 15:28:00;;;;;;;65.32;41.40;;;26.00;2201.60;;;;;;4845194;29;20042;-74
2021/12/27 15:30:26;;;;;;;62.53;39.38;;;26.00;2201.60;;;;;;4846955;29;20030;-74
2021/12/27 15:32:52;;;;;;;58.90;37.33;;;26.10;2201.60;;;;;;4835512;29;20042;-74
2021/12/27 15:35:20;;;;;;;53.50;34.85;;;26.10;2201.60;;;;;;4832687;29;20030;-76
2021/12/27 15:37:46;;;;;;;53.85;35.22;;;26.00;2201.60;;;;;;4839381;29;20034;-77
2021/12/27 15:40:13;;;;;;;53.78;35.40;;;26.00;2201.60;;;;;;4840705;29;20037;-76
2021/12/27 15:42:47;;;;;;;63.97;38.53;;;26.00;2201.60;;;;;;4845228;29;20056;-77
2021/12/27 15:45:35;;;;;;;;;;;26.10;2201.60;;;;;;4837125;29;20038;-76
2021/12/27 15:48:02;;;;;;;65.00;40.47;;;26.10;2201.60;;;;;;4879009;24;19931;-77
2021/12/27 15:51:10;;;;;;;58.85;37.22;;;26.10;2201.60;;;;;;4843352;29;20030;-77
2021/12/27 15:53:57;;;;;;;65.15;38.20;;;26.10;2201.60;;;;;;4817765;29;20039;-77
2021/12/27 15:56:50;;;;;;;62.58;39.05;;;26.00;2201.60;;;;;;4800370;29;20038;-78
2021/12/27 15:59:59;;;;;;;64.22;41.25;;;25.90;2201.60;;;;;;4798027;30;20250;-79
2021/12/27 16:03:31;;;;;;;77.82;48.35;;;26.10;2201.60;;;;;;4807133;29;20055;-78
2021/12/27 16:06:05;;;;;;;78.78;50.05;;;26.00;2201.60;;;;;;4798648;29;20023;-78
2021/12/27 16:08:41;;;;;;;72.00;46.17;;;26.00;2201.60;;;;;;4809106;29;20031;-76
2021/12/27 16:11:13;;;;;;;64.90;42.00;;;26.10;2201.60;;;;;;4788124;30;20035;-76
2021/12/27 16:13:41;;;;;;;67.35;41.75;;;26.10;2201.60;;;;;;4801314;29;20081;-78
2021/12/27 16:16:09;;;;;;;72.93;45.10;;;26.10;2201.60;;;;;;4782992;30;20035;-75
2021/12/27 16:18:35;;;;;;;71.82;44.97;;;26.10;2201.60;;;;;;4791101;29;20593;-75
2021/12/27 16:21:06;;;;;;;74.30;46.08;;;26.10;2201.60;;;;;;4813761;29;20043;-77
2021/12/27 16:23:35;;;;;;;76.60;46.92;;;26.10;2201.60;;;;;;4805752;29;20053;-76
2021/12/27 16:26:01;;;;;;;73.07;43.88;;;26.20;2201.60;;;;;;4800093;29;20100;-73
2021/12/27 16:28:26;;;;;;;70.60;43.83;;;26.20;2201.60;;;;;;4785821;29;20541;-77
2021/12/27 16:30:53;;;;;;;67.03;42.92;;;26.20;2201.60;;;;;;4785544;29;20417;-75
2021/12/27 16:33:19;;;;;;;69.57;42.70;;;26.20;2201.60;;;;;;4785813;29;20066;-75
2021/12/27 16:35:49;;;;;;;67.38;43.35;;;26.10;2201.60;;;;;;4788122;29;20071;-75